Time;durP1;ratioP1;P1;durP2;ratioP2;P2;SDS_P1;SDS_P2;PMS_P1;PMS_P2;Temp;Humidity;BMP_temperature;BMP_pressure;BME280_temperature;BME280_humidity;BME280_pressure;Samples;Min_cycle;Max_cycle;Signal;HPM_P1;HPM_P2
2022/11/19 00:00:42;;;;;;;34.65;14.85;;;;;;;10.44;100.00;100676.78;4988558;28;20073;-57
2022/11/19 00:03:07;;;;;;;28.95;14.65;;;;;;;10.58;100.00;100683.00;4982911;28;20039;-57
2022/11/19 00:05:42;;;;;;;27.92;14.25;;;;;;;10.58;100.00;100685.69;4983036;28;20053;-59
2022/11/19 00:08:09;;;;;;;29.25;13.95;;;;;;;10.60;100.00;100687.16;4983753;28;20030;-57
2022/11/19 00:10:38;;;;;;;33.40;15.85;;;;;;;10.64;100.00;100692.09;4983919;28;20023;-58
2022/11/19 00:13:05;;;;;;;31.15;14.93;;;;;;;10.60;100.00;100692.50;4985159;28;20045;-57
2022/11/19 00:15:35;;;;;;;28.50;13.95;;;;;;;10.60;100.00;100694.34;4984554;28;20045;-58
2022/11/19 00:18:02;;;;;;;27.70;13.98;;;;;;;10.41;100.00;100695.91;4987979;28;20035;-59
2022/11/19 00:20:29;;;;;;;27.42;12.98;;;;;;;10.46;100.00;100696.97;4985508;28;20061;-55
2022/11/19 00:22:56;;;;;;;26.55;13.93;;;;;;;10.22;100.00;100695.56;4985252;28;20035;-57
2022/11/19 00:25:22;;;;;;;27.70;13.57;;;;;;;10.26;100.00;100701.34;4982089;28;20035;-57
2022/11/19 00:27:48;;;;;;;30.33;13.45;;;;;;;10.18;100.00;100700.50;4977721;28;20090;-55
2022/11/19 00:30:14;;;;;;;24.75;12.18;;;;;;;10.19;100.00;100704.81;4983264;28;20069;-56
2022/11/19 00:32:40;;;;;;;24.85;11.63;;;;;;;10.19;100.00;100704.81;4981097;28;20098;-54
2022/11/19 00:35:06;;;;;;;19.67;11.07;;;;;;;10.36;100.00;100704.47;4987060;28;20043;-57
2022/11/19 00:37:32;;;;;;;25.63;13.35;;;;;;;10.14;100.00;100704.53;4986198;28;20030;-54
2022/11/19 00:39:57;;;;;;;21.27;9.67;;;;;;;10.74;100.00;100712.09;4984233;28;20094;-57
2022/11/19 00:42:23;;;;;;;25.17;12.10;;;;;;;10.07;100.00;100697.53;4990344;28;20027;-56
2022/11/19 00:44:49;;;;;;;26.80;11.65;;;;;;;10.00;100.00;100705.50;4986310;28;20303;-56
2022/11/19 00:47:15;;;;;;;21.33;10.82;;;;;;;10.04;100.00;100712.09;4987906;28;20035;-54
2022/11/19 00:49:41;;;;;;;25.60;12.55;;;;;;;9.42;100.00;100701.94;4988970;28;20049;-57
2022/11/19 00:52:06;;;;;;;20.73;9.90;;;;;;;9.80;100.00;100711.50;4987244;28;20106;-56
2022/11/19 00:54:32;;;;;;;27.20;11.63;;;;;;;9.69;100.00;100704.03;4983475;28;20138;-57
2022/11/19 00:56:57;;;;;;;24.23;11.73;;;;;;;9.76;100.00;100702.25;4987910;28;20035;-56
2022/11/19 00:59:23;;;;;;;30.07;13.37;;;;;;;9.96;100.00;100704.25;4985054;28;20098;-55
2022/11/19 01:01:48;;;;;;;32.93;12.57;;;;;;;9.77;100.00;100711.91;4986433;28;20031;-57
2022/11/19 01:04:13;;;;;;;22.73;12.03;;;;;;;9.96;100.00;100710.41;4986998;28;20119;-55
2022/11/19 01:06:39;;;;;;;27.45;12.43;;;;;;;9.86;100.00;100708.06;4986304;28;20031;-56
2022/11/19 01:09:05;;;;;;;28.50;12.55;;;;;;;9.94;100.00;100717.78;4985028;28;20063;-53
2022/11/19 01:11:34;;;;;;;28.90;13.53;;;;;;;10.21;100.00;100719.81;4986320;28;20061;-56
2022/11/19 01:14:00;;;;;;;29.35;13.45;;;;;;;9.65;100.00;100727.63;4985062;28;20032;-57
2022/11/19 01:16:38;;;;;;;26.97;12.57;;;;;;;9.96;100.00;100730.97;4986998;28;20030;-54
2022/11/19 01:19:06;;;;;;;32.75;14.50;;;;;;;10.05;100.00;100743.13;4988641;28;20064;-58
2022/11/19 01:21:34;;;;;;;28.48;15.13;;;;;;;10.07;100.00;100740.28;4983104;28;20034;-58
2022/11/19 01:24:00;;;;;;;28.40;13.00;;;;;;;9.99;100.00;100741.25;4985838;28;20035;-55
2022/11/19 01:26:26;;;;;;;29.73;15.20;;;;;;;9.95;100.00;100737.31;4986574;28;20034;-57
2022/11/19 01:28:52;;;;;;;30.48;14.25;;;;;;;10.12;100.00;100741.34;4987417;28;20039;-58
2022/11/19 01:31:21;;;;;;;28.02;15.25;;;;;;;10.01;100.00;100741.88;4986019;28;20041;-58
2022/11/19 01:33:47;;;;;;;30.35;15.02;;;;;;;10.09;100.00;100744.41;4990774;28;20031;-57
2022/11/19 01:36:18;;;;;;;29.10;14.23;;;;;;;10.06;100.00;100750.13;4996485;28;20039;-58
2022/11/19 01:38:49;;;;;;;28.02;14.43;;;;;;;9.95;100.00;100750.69;4985776;28;20037;-57
2022/11/19 01:41:19;;;;;;;26.58;14.07;;;;;;;9.80;100.00;100748.91;4988330;28;21574;-56
2022/11/19 01:43:51;;;;;;;27.27;13.52;;;;;;;9.76;100.00;100755.66;4989936;28;20047;-58
2022/11/19 01:46:19;;;;;;;29.17;15.40;;;;;;;9.96;100.00;100766.50;4990897;28;20050;-54
2022/11/19 01:48:47;;;;;;;27.02;14.38;;;;;;;9.75;100.00;100762.81;4987565;28;20031;-56
2022/11/19 01:51:23;;;;;;;31.55;15.00;;;;;;;9.82;100.00;100767.41;4991406;28;20222;-58
2022/11/19 01:53:51;;;;;;;28.67;14.25;;;;;;;9.76;100.00;100767.16;4988997;28;20039;-58
2022/11/19 01:56:19;;;;;;;30.10;15.00;;;;;;;9.85;100.00;100773.19;4987875;28;20053;-56
2022/11/19 01:58:51;;;;;;;29.23;15.02;;;;;;;9.84;100.00;100770.72;4988695;28;20031;-54
2022/11/19 02:01:18;;;;;;;32.88;15.20;;;;;;;9.82;100.00;100781.59;4988192;28;20061;-55
2022/11/19 02:03:45;;;;;;;30.52;13.82;;;;;;;9.85;100.00;100780.38;4986249;28;20070;-58
2022/11/19 02:06:11;;;;;;;28.08;13.93;;;;;;;9.81;100.00;100776.44;4983084;28;20027;-56
2022/11/19 02:08:38;;;;;;;26.38;13.68;;;;;;;9.70;100.00;100778.59;4991806;28;20035;-57
2022/11/19 02:11:31;;;;;;;28.98;13.30;;;;;;;9.71;100.00;100782.94;4987003;28;20106;-57
2022/11/19 02:14:03;;;;;;;26.67;13.68;;;;;;;9.61;100.00;100785.91;4936603;28;20077;-56
2022/11/19 02:16:42;;;;;;;30.73;15.15;;;;;;;9.40;100.00;100791.22;4991716;28;20031;-58
2022/11/19 02:19:43;;;;;;;31.98;14.65;;;;;;;9.60;100.00;100796.78;4985018;28;20035;-57
2022/11/19 02:22:52;;;;;;;26.15;13.38;;;;;;;9.55;100.00;100799.19;4991208;28;20031;-58
2022/11/19 02:25:30;;;;;;;34.30;14.27;;;;;;;9.41;100.00;100790.22;4987115;28;20043;-54
2022/11/19 02:28:17;;;;;;;25.60;13.43;;;;;;;9.45;100.00;100796.81;4985703;28;20042;-54
2022/11/19 02:30:46;;;;;;;;;;;;;;;9.53;100.00;100793.22;4986801;28;20042;-56
2022/11/19 02:33:28;;;;;;;28.48;12.55;;;;;;;8.95;100.00;100797.47;4985956;28;19993;-55
2022/11/19 02:36:01;;;;;;;27.52;13.48;;;;;;;9.32;100.00;100793.00;4987785;28;20115;-56
2022/11/19 02:38:29;;;;;;;25.38;13.23;;;;;;;9.29;100.00;100788.06;4988184;28;20128;-51
2022/11/19 02:41:32;;;;;;;28.52;14.18;;;;;;;9.43;100.00;100789.03;4990870;28;20066;-58
2022/11/19 02:44:57;;;;;;;27.02;14.20;;;;;;;9.31;100.00;100791.34;4988247;28;20030;-56
2022/11/19 02:46:47;;;;;;;28.33;15.35;;;;;;;9.28;100.00;100791.75;4990506;28;20055;-54
2022/11/19 02:49:15;;;;;;;31.90;15.32;;;;;;;9.26;100.00;100785.75;4989873;28;20027;-59
2022/11/19 02:51:42;;;;;;;27.73;14.82;;;;;;;9.29;100.00;100787.22;4990095;28;20038;-58
2022/11/19 02:54:07;;;;;;;33.63;15.82;;;;;;;9.42;100.00;100787.38;4994747;28;20114;-58
2022/11/19 02:56:54;;;;;;;29.50;14.75;;;;;;;9.25;100.00;100781.44;4987577;28;20042;-56
2022/11/19 03:05:11;;;;;;;30.50;14.73;;;;;;;9.03;100.00;100786.72;4990925;28;20058;-58
2022/11/19 03:07:37;;;;;;;31.63;15.20;;;;;;;9.22;100.00;100789.78;4989603;28;20042;-58
2022/11/19 03:10:07;;;;;;;31.58;15.32;;;;;;;9.02;100.00;100792.22;4986988;28;20061;-56
2022/11/19 03:12:57;;;;;;;33.38;16.02;;;;;;;9.04;100.00;100796.38;4992472;28;20095;-55
2022/11/19 03:18:37;;;;;;;31.05;15.35;;;;;;;8.91;100.00;100801.53;4991880;28;20083;-57
2022/11/19 03:21:32;;;;;;;31.75;15.43;;;;;;;9.01;100.00;100802.09;4987401;28;20045;-57
2022/11/19 03:24:01;;;;;;;31.98;16.05;;;;;;;9.04;100.00;100812.38;4999370;28;20050;-56
2022/11/19 03:26:36;;;;;;;32.22;16.25;;;;;;;9.03;100.00;100808.06;4990356;28;20107;-54
2022/11/19 03:29:06;;;;;;;33.08;15.98;;;;;;;8.91;100.00;100814.88;4990646;28;20042;-57
2022/11/19 03:31:33;;;;;;;34.20;16.67;;;;;;;9.02;100.00;100819.75;4987840;28;20034;-56
2022/11/19 03:34:03;;;;;;;30.60;16.13;;;;;;;8.97;100.00;100816.78;4985935;28;20046;-55
2022/11/19 03:36:37;;;;;;;34.85;17.70;;;;;;;9.12;100.00;100814.13;5020597;28;20101;-53
2022/11/19 03:39:07;;;;;;;39.85;19.63;;;;;;;9.00;100.00;100807.59;4990390;28;20043;-55
2022/11/19 03:41:36;;;;;;;52.08;22.58;;;;;;;8.50;100.00;100820.66;4985633;28;20035;-51
2022/11/19 03:44:15;;;;;;;43.28;21.55;;;;;;;8.63;100.00;100806.69;4984201;28;20093;-55
2022/11/19 03:46:43;;;;;;;33.00;16.52;;;;;;;8.95;100.00;100818.81;4984786;28;20035;-57
2022/11/19 03:49:12;;;;;;;35.72;17.23;;;;;;;8.69;100.00;100812.13;4988858;28;20031;-54
2022/11/19 03:51:47;;;;;;;35.67;17.95;;;;;;;8.75;100.00;100818.56;4989224;28;20039;-56
2022/11/19 03:54:13;;;;;;;35.22;18.00;;;;;;;8.68;100.00;100818.47;4986893;28;20073;-57
2022/11/19 03:56:40;;;;;;;34.47;17.95;;;;;;;8.53;100.00;100821.13;4989031;28;20059;-55
2022/11/19 03:59:09;;;;;;;40.97;19.25;;;;;;;8.37;100.00;100821.25;4991683;28;20031;-55
2022/11/19 04:01:35;;;;;;;35.67;17.38;;;;;;;8.58;100.00;100825.91;4991490;28;20102;-57
2022/11/19 04:06:46;;;;;;;32.65;17.00;;;;;;;8.65;100.00;100824.16;4984834;28;20099;-57
2022/11/19 04:09:11;;;;;;;36.83;18.17;;;;;;;8.45;100.00;100830.00;4987780;28;20065;-52
2022/11/19 04:11:37;;;;;;;36.97;18.60;;;;;;;8.65;100.00;100837.50;4981417;28;20058;-57
2022/11/19 04:14:02;;;;;;;37.20;17.80;;;;;;;8.69;100.00;100830.78;4988929;28;20098;-54
2022/11/19 04:16:28;;;;;;;35.67;17.43;;;;;;;8.38;100.00;100845.06;4986156;28;20050;-54
2022/11/19 04:18:53;;;;;;;36.47;17.70;;;;;;;8.42;100.00;100840.16;4991293;28;20049;-56
2022/11/19 04:21:19;;;;;;;32.40;16.53;;;;;;;8.59;100.00;100846.22;4991118;28;20341;-57
2022/11/19 04:23:44;;;;;;;39.40;18.63;;;;;;;8.52;100.00;100861.28;4986641;28;20023;-56
2022/11/19 04:26:10;;;;;;;34.00;15.47;;;;;;;8.16;100.00;100862.72;4988039;28;20034;-58
2022/11/19 04:28:35;;;;;;;35.60;18.30;;;;;;;8.65;100.00;100860.66;4991295;28;20296;-56
2022/11/19 04:31:01;;;;;;;41.63;18.73;;;;;;;8.30;100.00;100859.28;4989525;28;20039;-54
2022/11/19 04:33:26;;;;;;;32.93;16.63;;;;;;;8.43;100.00;100857.84;4985712;28;20061;-53
2022/11/19 04:35:52;;;;;;;35.45;18.02;;;;;;;8.46;100.00;100862.81;4985321;28;20030;-54
2022/11/19 04:38:17;;;;;;;35.23;18.20;;;;;;;8.31;100.00;100863.59;4989923;28;20035;-55
2022/11/19 04:40:43;;;;;;;37.70;18.80;;;;;;;8.39;100.00;100868.03;4990146;28;20034;-58
2022/11/19 04:43:09;;;;;;;39.63;19.73;;;;;;;8.22;100.00;100877.16;4991012;28;20273;-55
2022/11/19 04:45:34;;;;;;;36.43;19.47;;;;;;;8.27;100.00;100880.13;4988362;28;20041;-55
2022/11/19 04:47:59;;;;;;;38.97;18.23;;;;;;;8.40;100.00;100880.34;5004588;28;20299;-57
2022/11/19 04:50:25;;;;;;;27.52;13.80;;;;;;;8.36;100.00;100876.38;4986912;28;20031;-55
2022/11/19 04:52:50;;;;;;;34.23;17.27;;;;;;;8.23;100.00;100890.31;4989073;28;20039;-57
2022/11/19 04:55:16;;;;;;;35.38;16.65;;;;;;;8.11;100.00;100894.38;4975548;28;20214;-54
2022/11/19 04:57:41;;;;;;;35.03;18.23;;;;;;;8.17;100.00;100893.66;4969894;29;20040;-56
2022/11/19 05:00:07;;;;;;;35.97;16.87;;;;;;;8.18;100.00;100904.16;4964166;28;20043;-54
2022/11/19 05:02:34;;;;;;;37.83;19.53;;;;;;;8.23;100.00;100905.47;4966452;28;20036;-56
2022/11/19 05:04:59;;;;;;;37.00;18.17;;;;;;;8.26;100.00;100911.28;4963077;28;20095;-56
2022/11/19 05:07:25;;;;;;;37.00;18.10;;;;;;;8.08;100.00;100906.25;4968712;28;20069;-57
2022/11/19 05:09:50;;;;;;;35.10;17.97;;;;;;;8.25;100.00;100903.44;4970147;28;20043;-55
2022/11/19 05:12:16;;;;;;;35.50;18.30;;;;;;;8.18;100.00;100911.31;4968063;28;20070;-58
2022/11/19 05:14:42;;;;;;;35.20;16.77;;;;;;;8.15;100.00;100906.34;4967632;28;20027;-55
2022/11/19 05:17:07;;;;;;;38.20;18.27;;;;;;;8.10;100.00;100917.56;4965050;28;20052;-54
2022/11/19 05:19:33;;;;;;;35.92;16.63;;;;;;;8.01;100.00;100918.59;4972338;28;21094;-55
2022/11/19 05:21:58;;;;;;;39.23;19.10;;;;;;;7.97;100.00;100917.28;4971325;28;20035;-56
2022/11/19 05:24:23;;;;;;;37.03;17.93;;;;;;;7.91;100.00;100918.81;4970840;28;20043;-58
2022/11/19 05:26:49;;;;;;;40.50;19.08;;;;;;;7.95;100.00;100930.78;4952210;29;20071;-54
2022/11/19 05:29:15;;;;;;;40.80;18.53;;;;;;;8.17;100.00;100930.97;4971319;28;20066;-58
2022/11/19 05:31:40;;;;;;;39.73;19.50;;;;;;;8.06;100.00;100926.88;4974265;28;20054;-56
2022/11/19 05:34:06;;;;;;;40.57;18.77;;;;;;;8.04;100.00;100934.22;4974506;28;20063;-57
2022/11/19 05:36:31;;;;;;;40.23;18.70;;;;;;;7.78;100.00;100935.38;4970352;28;20292;-55
2022/11/19 05:38:57;;;;;;;38.07;17.53;;;;;;;7.40;100.00;100935.22;4972776;28;20042;-54
2022/11/19 05:41:22;;;;;;;43.27;20.07;;;;;;;7.76;100.00;100937.38;4969718;28;20273;-55
2022/11/19 05:43:48;;;;;;;40.87;18.13;;;;;;;7.83;100.00;100942.84;4972661;28;20031;-53
2022/11/19 05:46:13;;;;;;;43.75;21.08;;;;;;;7.90;100.00;100949.13;4970834;28;20194;-54
2022/11/19 05:48:39;;;;;;;41.27;19.70;;;;;;;7.87;100.00;100939.66;4971425;28;20035;-55
2022/11/19 05:51:04;;;;;;;37.10;18.73;;;;;;;7.86;100.00;100946.00;4969689;28;20296;-55
2022/11/19 05:53:30;;;;;;;39.78;18.85;;;;;;;7.57;100.00;100947.44;4971982;28;20167;-56
2022/11/19 05:55:56;;;;;;;44.53;21.17;;;;;;;7.12;100.00;100949.75;4989750;28;20039;-57
2022/11/19 05:58:21;;;;;;;37.65;18.40;;;;;;;7.76;100.00;100948.03;4989588;28;20031;-56
2022/11/19 06:00:47;;;;;;;41.92;19.25;;;;;;;7.83;100.00;100948.97;4991830;28;20046;-58
2022/11/19 06:03:12;;;;;;;43.87;20.80;;;;;;;8.08;100.00;100948.88;4992198;28;20038;-58
2022/11/19 06:05:38;;;;;;;40.75;20.05;;;;;;;8.10;100.00;100952.19;4990459;28;20073;-56
2022/11/19 06:08:04;;;;;;;40.10;18.80;;;;;;;7.92;100.00;100957.75;4992083;28;20039;-55
2022/11/19 06:10:30;;;;;;;41.95;19.75;;;;;;;7.87;100.00;100965.44;5002447;28;20102;-53
2022/11/19 06:12:55;;;;;;;43.43;20.17;;;;;;;7.91;100.00;100965.94;4992189;28;20049;-53
2022/11/19 06:15:21;;;;;;;39.35;19.05;;;;;;;7.94;100.00;100963.72;4987922;28;20038;-50
2022/11/19 06:17:46;;;;;;;41.37;18.30;;;;;;;7.74;100.00;100969.50;4993160;28;20110;-51
2022/11/19 06:20:12;;;;;;;49.43;21.13;;;;;;;7.78;100.00;100972.66;4992271;28;20051;-54
2022/11/19 06:22:39;;;;;;;42.87;19.70;;;;;;;7.79;100.00;100976.16;5018950;28;20287;-54
2022/11/19 06:25:06;;;;;;;46.85;20.58;;;;;;;7.22;100.00;100978.84;4990258;28;20023;-57
2022/11/19 06:27:32;;;;;;;41.42;18.88;;;;;;;7.49;100.00;100975.91;4991594;28;20050;-57
2022/11/19 06:29:57;;;;;;;39.15;19.02;;;;;;;7.98;100.00;100982.88;4991689;28;20090;-57
2022/11/19 06:32:23;;;;;;;43.45;19.77;;;;;;;7.81;100.00;100982.94;4993293;28;20164;-54
2022/11/19 06:34:48;;;;;;;40.03;20.13;;;;;;;7.78;100.00;100993.13;4991362;28;20053;-56
2022/11/19 06:37:14;;;;;;;44.15;21.40;;;;;;;7.79;100.00;100994.78;4992950;28;20037;-55
2022/11/19 06:39:39;;;;;;;49.30;20.10;;;;;;;7.75;100.00;100991.63;4993004;28;20061;-58
2022/11/19 06:44:50;;;;;;;41.95;18.92;;;;;;;7.69;100.00;100989.66;4989846;28;20058;-57
2022/11/19 06:47:15;;;;;;;43.63;21.13;;;;;;;7.63;100.00;100985.84;4992720;28;20038;-55
2022/11/19 06:49:41;;;;;;;40.50;18.43;;;;;;;7.65;100.00;100983.84;4988006;28;20098;-56
2022/11/19 06:52:06;;;;;;;41.53;18.95;;;;;;;7.82;100.00;100989.91;4992801;28;20026;-53
2022/11/19 06:54:32;;;;;;;38.17;18.27;;;;;;;7.78;100.00;100991.28;5003051;28;20054;-57
2022/11/19 06:56:57;;;;;;;38.67;18.47;;;;;;;7.62;100.00;100988.72;4990864;28;20300;-57
2022/11/19 06:59:23;;;;;;;39.37;17.73;;;;;;;7.58;100.00;100994.34;4993097;28;20034;-56
2022/11/19 07:01:48;;;;;;;44.65;22.17;;;;;;;7.58;100.00;101004.19;4988486;28;20031;-56
2022/11/19 07:04:15;;;;;;;43.13;20.80;;;;;;;7.66;100.00;101001.47;4988272;28;20062;-58
2022/11/19 07:06:41;;;;;;;36.17;18.38;;;;;;;7.00;100.00;101004.28;4990460;28;20099;-57
2022/11/19 07:09:06;;;;;;;37.60;18.80;;;;;;;7.52;100.00;101012.84;4990135;28;20042;-57
2022/11/19 07:11:32;;;;;;;37.42;19.05;;;;;;;7.14;100.00;101016.91;4993208;28;20039;-56
2022/11/19 07:13:58;;;;;;;43.37;19.70;;;;;;;7.76;100.00;101022.56;4990103;28;20110;-55
2022/11/19 07:16:32;;;;;;;39.33;18.95;;;;;;;7.49;100.00;101026.47;4988076;28;20058;-58
2022/11/19 07:19:02;;;;;;;40.67;18.70;;;;;;;7.44;100.00;101021.69;4990129;28;20070;-56
2022/11/19 07:21:29;;;;;;;42.97;20.10;;;;;;;7.57;100.00;101026.47;4990636;28;20050;-58
2022/11/19 07:23:56;;;;;;;38.78;18.58;;;;;;;7.68;100.00;101034.06;4991082;28;20085;-57
2022/11/19 07:26:22;;;;;;;38.22;17.95;;;;;;;7.57;100.00;101035.28;4987398;28;20573;-56
2022/11/19 07:28:47;;;;;;;37.03;18.48;;;;;;;7.41;100.00;101040.66;4988024;28;20038;-57
2022/11/19 07:31:13;;;;;;;35.30;16.93;;;;;;;7.60;100.00;101039.44;4988283;28;20039;-59
2022/11/19 07:33:39;;;;;;;35.27;17.13;;;;;;;7.63;100.00;101035.63;5005752;28;20292;-54
2022/11/19 07:36:07;;;;;;;39.33;18.35;;;;;;;7.40;100.00;101044.31;4980740;28;20049;-54
2022/11/19 07:38:33;;;;;;;38.90;18.20;;;;;;;7.27;100.00;101045.66;4988150;28;20060;-58
2022/11/19 07:40:59;;;;;;;38.78;18.25;;;;;;;7.42;100.00;101050.31;4982805;28;20055;-56
2022/11/19 07:43:24;;;;;;;35.33;17.50;;;;;;;7.35;100.00;101054.63;4985197;28;20038;-58
2022/11/19 07:45:50;;;;;;;35.03;16.80;;;;;;;7.27;100.00;101060.81;4989718;28;20041;-55
2022/11/19 07:48:15;;;;;;;39.40;18.20;;;;;;;7.29;100.00;101056.97;4989848;28;20046;-56
2022/11/19 07:50:41;;;;;;;37.27;18.07;;;;;;;7.26;100.00;101054.63;4989836;28;20034;-56
2022/11/19 07:53:07;;;;;;;40.37;18.10;;;;;;;7.36;100.00;101064.25;4986757;28;20049;-57
2022/11/19 07:55:36;;;;;;;37.15;17.88;;;;;;;7.50;100.00;101060.91;4982863;28;20115;-58
2022/11/19 07:58:01;;;;;;;43.35;19.45;;;;;;;7.39;100.00;101063.94;4984059;28;20045;-58
2022/11/19 08:00:28;;;;;;;40.10;17.92;;;;;;;7.56;100.00;101075.38;5012281;28;20076;-57
2022/11/19 08:02:54;;;;;;;40.55;18.02;;;;;;;7.50;100.00;101076.88;4983332;28;20050;-58
2022/11/19 08:05:20;;;;;;;37.90;16.83;;;;;;;7.38;100.00;101072.91;4986891;28;20107;-56
2022/11/19 08:07:45;;;;;;;33.93;16.37;;;;;;;7.38;100.00;101081.72;4989443;28;20303;-56
2022/11/19 08:10:11;;;;;;;39.97;19.70;;;;;;;7.35;100.00;101081.22;4984224;28;20035;-57
2022/11/19 08:12:36;;;;;;;38.73;18.90;;;;;;;7.17;100.00;101092.88;4970730;28;20039;-57
2022/11/19 08:15:02;;;;;;;38.23;17.27;;;;;;;7.32;100.00;101085.88;5009504;28;20038;-58
2022/11/19 08:20:16;;;;;;;36.58;18.27;;;;;;;6.79;100.00;101084.56;4983323;28;20038;-54
2022/11/19 08:22:41;;;;;;;35.97;16.52;;;;;;;7.44;100.00;101090.88;4998520;28;20026;-54
2022/11/19 08:25:07;;;;;;;32.83;15.25;;;;;;;7.36;100.00;101089.03;4996465;28;20111;-59
2022/11/19 08:27:32;;;;;;;35.50;16.57;;;;;;;7.40;100.00;101092.22;4988334;28;20058;-58
2022/11/19 08:29:58;;;;;;;38.00;17.60;;;;;;;7.46;100.00;101099.50;4986817;28;20045;-56
2022/11/19 08:32:23;;;;;;;35.77;16.13;;;;;;;7.42;100.00;101095.53;4981219;28;20054;-56
2022/11/19 08:34:49;;;;;;;34.88;15.57;;;;;;;7.44;100.00;101101.50;4983786;28;20070;-58
2022/11/19 08:37:14;;;;;;;32.33;16.33;;;;;;;6.99;100.00;101096.53;4985840;28;20038;-55
2022/11/19 08:39:40;;;;;;;34.95;15.80;;;;;;;7.50;100.00;101106.16;4998120;28;20044;-57
2022/11/19 08:44:53;;;;;;;36.33;16.98;;;;;;;7.63;100.00;101118.13;4979324;28;20046;-56
2022/11/19 08:47:20;;;;;;;33.70;15.55;;;;;;;7.59;100.00;101107.78;4987187;28;20046;-55
2022/11/19 08:49:45;;;;;;;34.53;16.75;;;;;;;7.62;100.00;101111.97;4980881;28;20035;-57
2022/11/19 08:52:13;;;;;;;37.65;17.30;;;;;;;7.49;100.00;101120.47;4989293;28;20065;-54
2022/11/19 08:54:39;;;;;;;39.33;18.77;;;;;;;7.81;100.00;101117.91;4988358;28;20108;-57
2022/11/19 08:57:04;;;;;;;36.60;15.63;;;;;;;7.60;100.00;101120.09;4990342;28;20049;-57
2022/11/19 08:59:30;;;;;;;33.97;16.53;;;;;;;7.65;100.00;101121.44;4987439;28;20035;-57
2022/11/19 09:01:55;;;;;;;36.67;16.83;;;;;;;7.70;100.00;101125.25;4990405;28;20275;-56
2022/11/19 09:04:21;;;;;;;34.47;16.17;;;;;;;7.55;100.00;101121.63;4987504;28;20046;-58
2022/11/19 09:06:46;;;;;;;30.57;14.73;;;;;;;7.60;100.00;101127.28;4991482;28;20043;-57
2022/11/19 09:09:12;;;;;;;34.83;14.80;;;;;;;7.61;100.00;101126.28;4988050;28;20309;-59
2022/11/19 09:11:37;;;;;;;30.13;15.17;;;;;;;6.90;100.00;101129.41;4981054;28;20026;-58
2022/11/19 09:14:02;;;;;;;57.03;22.87;;;;;;;7.51;100.00;101137.09;4987637;28;20081;-55
2022/11/19 09:16:28;;;;;;;33.25;14.25;;;;;;;7.36;100.00;101144.91;4992681;28;20094;-57
2022/11/19 09:18:54;;;;;;;33.10;16.13;;;;;;;6.90;100.00;101134.72;4992177;28;20111;-56
2022/11/19 09:21:19;;;;;;;32.97;15.43;;;;;;;6.80;100.00;101140.19;4989518;28;20050;-57
2022/11/19 09:23:44;;;;;;;32.23;15.23;;;;;;;6.87;100.00;101146.53;4976846;28;20027;-56
2022/11/19 09:26:13;;;;;;;31.52;15.52;;;;;;;6.75;100.00;101147.84;4994098;28;20046;-57
2022/11/19 09:28:39;;;;;;;37.03;17.02;;;;;;;6.71;100.00;101147.34;4986421;28;20065;-59
2022/11/19 09:31:06;;;;;;;30.47;14.60;;;;;;;6.87;100.00;101143.03;4987851;28;20035;-58
2022/11/19 09:33:34;;;;;;;30.75;14.82;;;;;;;6.84;100.00;101146.03;4983814;28;20069;-57
2022/11/19 09:36:00;;;;;;;32.95;14.32;;;;;;;7.07;100.00;101143.59;4988544;28;20047;-57
2022/11/19 09:38:26;;;;;;;29.35;14.48;;;;;;;6.86;100.00;101144.88;4993305;28;20039;-58
2022/11/19 09:40:54;;;;;;;31.73;15.10;;;;;;;6.88;100.00;101152.69;4991957;28;20037;-58
2022/11/19 09:43:38;;;;;;;35.05;16.17;;;;;;;6.92;100.00;101162.03;4988464;28;20328;-57
2022/11/19 09:46:24;;;;;;;32.67;14.27;;;;;;;7.13;100.00;101161.53;4989289;28;20038;-59
2022/11/19 09:48:54;;;;;;;34.00;14.77;;;;;;;7.23;100.00;101171.19;4988850;28;20043;-57
2022/11/19 09:51:28;;;;;;;31.90;15.32;;;;;;;7.14;100.00;101179.16;4989270;28;20045;-56
2022/11/19 09:54:01;;;;;;;36.53;16.63;;;;;;;7.28;100.00;101172.34;4990029;28;20039;-57
2022/11/19 09:56:33;;;;;;;30.33;15.23;;;;;;;6.84;100.00;101178.78;4986082;28;20102;-55
2022/11/19 09:59:06;;;;;;;29.40;14.52;;;;;;;6.92;100.00;101180.63;4992740;28;20030;-56
2022/11/19 10:01:34;;;;;;;30.40;14.43;;;;;;;7.01;100.00;101174.31;4989821;28;20032;-55
2022/11/19 10:04:00;;;;;;;27.92;13.93;;;;;;;7.32;100.00;101184.31;4987271;28;20050;-58
2022/11/19 10:06:51;;;;;;;28.58;14.95;;;;;;;7.14;100.00;101180.97;4989387;28;20030;-56
2022/11/19 10:09:40;;;;;;;26.75;12.68;;;;;;;7.31;100.00;101185.31;4988887;28;20042;-57
2022/11/19 10:12:19;;;;;;;30.83;14.63;;;;;;;7.24;100.00;101187.00;4970487;28;20039;-56
2022/11/19 10:14:54;;;;;;;32.75;13.10;;;;;;;7.42;100.00;101184.16;4988797;28;20039;-53
2022/11/19 10:17:40;;;;;;;27.50;13.27;;;;;;;7.55;100.00;101181.00;4986776;28;20053;-56
2022/11/19 10:20:32;;;;;;;28.45;12.32;;;;;;;7.50;100.00;101182.53;4984472;28;20039;-54
2022/11/19 10:23:17;;;;;;;30.23;14.80;;;;;;;7.34;100.00;101183.31;4990856;28;20035;-55
2022/11/19 10:25:47;;;;;;;27.95;12.20;;;;;;;7.34;100.00;101185.97;4988388;28;20026;-58
2022/11/19 10:28:17;;;;;;;31.17;14.02;;;;;;;7.20;100.00;101183.00;4984211;28;20074;-59
2022/11/19 10:30:48;;;;;;;25.60;12.63;;;;;;;6.91;100.00;101186.91;4987934;28;20039;-58
2022/11/19 10:33:20;;;;;;;27.63;13.35;;;;;;;7.15;100.00;101190.63;4990337;28;20035;-57
2022/11/19 10:35:50;;;;;;;28.00;12.93;;;;;;;7.52;100.00;101193.84;4990583;28;20098;-57
2022/11/19 10:38:22;;;;;;;31.65;13.57;;;;;;;7.84;100.00;101202.78;4990302;28;20098;-58
2022/11/19 10:40:55;;;;;;;75.97;28.80;;;;;;;7.81;100.00;101195.13;4986424;28;20099;-57
2022/11/19 10:43:24;;;;;;;26.58;12.50;;;;;;;7.75;100.00;101196.63;4992331;28;20031;-56
2022/11/19 10:45:49;;;;;;;28.50;13.15;;;;;;;8.03;100.00;101199.75;4985007;28;20035;-57
2022/11/19 10:48:22;;;;;;;27.30;12.57;;;;;;;7.91;100.00;101200.28;4992608;28;20098;-58
2022/11/19 10:50:48;;;;;;;26.95;12.30;;;;;;;8.04;100.00;101196.09;4985165;28;20039;-58
2022/11/19 10:53:27;;;;;;;25.40;11.68;;;;;;;7.83;100.00;101193.13;5013889;28;20039;-56
2022/11/19 10:56:00;;;;;;;26.38;11.85;;;;;;;7.85;100.00;101188.47;4986472;28;20036;-55
2022/11/19 10:58:35;;;;;;;22.75;11.80;;;;;;;7.82;100.00;101180.81;4988801;28;20045;-58
2022/11/19 11:01:04;;;;;;;24.83;12.05;;;;;;;7.70;100.00;101177.69;4988721;28;20035;-55
2022/11/19 11:03:40;;;;;;;24.92;12.55;;;;;;;8.08;100.00;101183.28;4988448;28;20485;-57
2022/11/19 11:06:08;;;;;;;26.75;13.38;;;;;;;8.05;100.00;101180.94;4988237;28;20082;-58
2022/11/19 11:08:48;;;;;;;25.65;12.00;;;;;;;8.10;100.00;101181.28;4989547;28;20038;-58
2022/11/19 11:14:50;;;;;;;23.58;11.55;;;;;;;7.92;100.00;101178.78;4990702;28;20035;-59
2022/11/19 11:17:22;;;;;;;23.13;12.82;;;;;;;8.24;100.00;101173.56;4988281;28;20070;-58
2022/11/19 11:20:18;;;;;;;21.42;10.73;;;;;;;8.40;100.00;101180.66;4988023;28;20027;-58
2022/11/19 11:22:47;;;;;;;23.30;11.63;;;;;;;8.31;100.00;101174.56;4989083;28;20102;-58
2022/11/19 11:25:26;;;;;;;24.83;12.32;;;;;;;8.31;100.00;101174.56;4988999;28;20064;-55
2022/11/19 11:28:15;;;;;;;24.85;12.32;;;;;;;8.27;100.00;101170.53;4988501;28;20034;-55
2022/11/19 11:30:59;;;;;;;24.55;12.18;;;;;;;8.36;100.00;101172.19;4988844;28;20066;-59
2022/11/19 11:33:26;;;;;;;22.33;10.77;;;;;;;8.51;100.00;101168.81;4988240;28;20039;-58
2022/11/19 11:35:56;;;;;;;24.23;11.98;;;;;;;8.50;100.00;101175.16;4986359;28;20043;-58
2022/11/19 11:38:24;;;;;;;20.00;10.40;;;;;;;8.43;100.00;101173.16;4990411;28;20060;-58
2022/11/19 11:41:05;;;;;;;24.48;12.05;;;;;;;8.53;100.00;101172.97;4988113;28;20094;-56